Time,TemperatureF,DewpointF,PressureIn,WindDirection,WindDirectionDegrees,WindSpeedMPH,WindSpeedGustMPH,Humidity,HourlyPrecipIn,Conditions,Clouds,dailyrainin,SoftwareType,DateUTC
2019-01-17 00:04:51,52.4,49.3,30.24,West,264,0.0,0.0,89,0.00,,CLR,0.00,VWS V15.00,2019-01-17 05:04:51,
2019-01-17 00:09:56,52.3,49.5,30.24,West,263,0.0,0.0,90,0.00,,CLR,0.00,VWS V15.00,2019-01-17 05:09:56,
2019-01-17 00:14:57,52.3,49.5,30.24,West,263,0.0,0.0,90,0.00,,CLR,0.00,VWS V15.00,2019-01-17 05:14:57,
2019-01-17 00:18:56,52.2,49.4,30.23,West,273,0.0,1.0,90,0.00,,CLR,0.00,VWS V15.00,2019-01-17 05:18:56,
2019-01-17 00:23:56,52.1,49.0,30.24,West,272,0.0,1.0,89,0.00,,CLR,0.00,VWS V15.00,2019-01-17 05:23:56,
2019-01-17 00:29:01,52.1,49.3,30.24,West,260,0.0,1.0,90,0.00,,CLR,0.00,VWS V15.00,2019-01-17 05:29:01,
2019-01-17 00:34:01,52.1,49.3,30.23,West,262,0.0,4.0,90,0.00,,CLR,0.00,VWS V15.00,2019-01-17 05:34:01,
2019-01-17 00:39:02,52.0,49.2,30.23,West,268,0.0,4.0,90,0.00,,CLR,0.00,VWS V15.00,2019-01-17 05:39:02,
2019-01-17 00:44:01,51.9,47.9,30.23,NW,310,0.0,4.0,86,0.00,,CLR,0.00,VWS V15.00,2019-01-17 05:44:01,
2019-01-17 00:49:02,51.9,47.9,30.23,NW,308,0.0,4.0,86,0.00,,CLR,0.00,VWS V15.00,2019-01-17 05:49:02,
2019-01-17 00:54:11,51.8,48.1,30.22,WNW,299,0.0,4.0,87,0.00,,CLR,0.00,VWS V15.00,2019-01-17 05:54:11,
2019-01-17 00:59:12,51.8,48.4,30.23,WNW,290,0.0,4.0,88,0.00,,CLR,0.00,VWS V15.00,2019-01-17 05:59:12,
2019-01-17 01:04:11,51.8,48.4,30.23,WNW,291,0.0,0.0,88,0.00,,CLR,0.00,VWS V15.00,2019-01-17 06:04:11,
2019-01-17 01:09:16,51.8,49.0,30.23,West,269,0.0,0.0,90,0.00,,CLR,0.00,VWS V15.00,2019-01-17 06:09:16,
2019-01-17 01:14:17,51.7,48.9,30.22,West,268,0.0,0.0,90,0.00,,CLR,0.00,VWS V15.00,2019-01-17 06:14:17,
2019-01-17 01:19:16,51.7,48.0,30.22,WNW,301,0.0,0.0,87,0.00,,CLR,0.00,VWS V15.00,2019-01-17 06:19:16,
2019-01-17 01:24:17,51.7,48.3,30.22,WNW,286,0.0,0.0,88,0.00,,CLR,0.00,VWS V15.00,2019-01-17 06:24:17,
2019-01-17 01:29:21,51.6,49.1,30.22,West,268,0.0,0.0,91,0.00,,CLR,0.00,VWS V15.00,2019-01-17 06:29:21,
2019-01-17 01:34:22,51.6,48.8,30.22,West,273,0.0,2.0,90,0.00,,CLR,0.00,VWS V15.00,2019-01-17 06:34:22,
2019-01-17 01:39:22,51.6,49.1,30.22,West,270,0.0,3.0,91,0.00,,CLR,0.00,VWS V15.00,2019-01-17 06:39:22,
2019-01-17 01:44:22,51.5,49.0,30.22,West,267,0.0,3.0,91,0.00,,CLR,0.00,VWS V15.00,2019-01-17 06:44:22,
2019-01-17 01:49:26,51.5,49.0,30.22,West,270,2.0,4.0,91,0.00,,CLR,0.00,VWS V15.00,2019-01-17 06:49:26,
2019-01-17 01:54:27,51.4,49.2,30.22,West,267,5.0,5.0,92,0.00,,CLR,0.00,VWS V15.00,2019-01-17 06:54:27,
2019-01-17 01:59:27,51.4,47.7,30.23,NW,311,3.0,5.0,87,0.00,,CLR,0.00,VWS V15.00,2019-01-17 06:59:27,
2019-01-17 02:04:31,51.5,48.1,30.22,NW,309,0.0,3.0,88,0.00,,CLR,0.00,VWS V15.00,2019-01-17 07:04:31,
2019-01-17 02:09:31,51.4,48.0,30.22,WNW,302,0.0,3.0,88,0.00,,CLR,0.00,VWS V15.00,2019-01-17 07:09:31,
2019-01-17 02:14:31,51.4,49.5,30.22,West,263,0.0,3.0,93,0.00,,CLR,0.00,VWS V15.00,2019-01-17 07:14:31,
2019-01-17 02:19:37,51.4,49.5,30.22,West,260,0.0,3.0,93,0.00,,CLR,0.00,VWS V15.00,2019-01-17 07:19:37,
2019-01-17 02:24:36,51.3,49.4,30.21,West,261,0.0,4.0,93,0.00,,FEW055,0.00,VWS V15.00,2019-01-17 07:24:36,
2019-01-17 02:29:36,51.3,47.9,30.22,NW,306,2.0,6.0,88,0.00,,FEW055,0.00,VWS V15.00,2019-01-17 07:29:36,
2019-01-17 02:34:41,51.4,48.0,30.21,NW,314,4.0,6.0,88,0.00,,FEW055,0.00,VWS V15.00,2019-01-17 07:34:41,
2019-01-17 02:39:41,51.3,47.9,30.21,NW,314,0.0,6.0,88,0.00,,FEW055,0.00,VWS V15.00,2019-01-17 07:39:41,
2019-01-17 02:44:42,51.4,48.0,30.21,WNW,300,0.0,6.0,88,0.00,,FEW055,0.00,VWS V15.00,2019-01-17 07:44:42,
2019-01-17 02:49:41,51.4,48.0,30.22,WNW,300,2.0,6.0,88,0.00,,FEW055,0.00,VWS V15.00,2019-01-17 07:49:41,
2019-01-17 02:54:47,51.4,48.0,30.22,WNW,300,0.0,6.0,88,0.00,,FEW055,0.00,VWS V15.00,2019-01-17 07:54:47,